Time;durP1;ratioP1;P1;durP2;ratioP2;P2;SDS_P1;SDS_P2;PMS_P1;PMS_P2;Temp;Humidity;BMP_temperature;BMP_pressure;BME280_temperature;BME280_humidity;BME280_pressure;Samples;Min_cycle;Max_cycle;Signal;HPM_P1;HPM_P2
2022/05/09 00:01:04;;;;;;;5.32;4.63;;;20.00;61.70;;;;;;5032510;28;20187;-73
2022/05/09 00:03:36;;;;;;;5.43;4.85;;;20.00;61.60;;;;;;5032965;28;20160;-72
2022/05/09 00:06:02;;;;;;;6.43;5.40;;;20.00;61.60;;;;;;5032559;28;20688;-72
2022/05/09 00:08:31;;;;;;;5.85;4.68;;;20.00;61.70;;;;;;5017105;28;20583;-72
2022/05/09 00:10:56;;;;;;;5.85;4.97;;;20.00;61.60;;;;;;5008436;28;20192;-73
2022/05/09 00:13:22;;;;;;;6.20;5.07;;;20.00;61.60;;;;;;5011083;28;20179;-72
2022/05/09 00:15:48;;;;;;;5.43;4.93;;;20.00;61.60;;;;;;5032305;28;20214;-72
2022/05/09 00:18:17;;;;;;;4.97;4.50;;;20.00;61.60;;;;;;5033850;28;20196;-72
2022/05/09 00:20:42;;;;;;;5.15;4.72;;;20.00;61.70;;;;;;5016842;28;20556;-72
2022/05/09 00:23:08;;;;;;;5.25;4.75;;;20.00;61.60;;;;;;5016675;28;20179;-72
2022/05/09 00:25:34;;;;;;;5.28;4.72;;;20.00;61.60;;;;;;5016049;28;20211;-72
2022/05/09 00:28:00;;;;;;;5.30;4.80;;;20.00;61.60;;;;;;5032680;28;20235;-72
2022/05/09 00:30:26;;;;;;;5.25;4.75;;;20.00;61.60;;;;;;5033945;28;20176;-73
2022/05/09 00:32:51;;;;;;;5.32;4.82;;;20.00;62.40;;;;;;5016025;28;20201;-72
2022/05/09 00:35:17;;;;;;;5.22;4.70;;;20.00;61.60;;;;;;5016321;28;20235;-72
2022/05/09 00:37:43;;;;;;;5.43;4.95;;;20.00;61.60;;;;;;5032437;28;20700;-72
2022/05/09 00:40:12;;;;;;;6.57;5.15;;;20.00;61.50;;;;;;5027010;28;20232;-72
2022/05/09 00:42:45;;;;;;;5.43;4.88;;;20.00;61.50;;;;;;5025178;28;20262;-73
2022/05/09 00:45:11;;;;;;;5.32;4.85;;;20.00;61.50;;;;;;5032932;28;20248;-73
2022/05/09 00:47:37;;;;;;;5.75;5.03;;;20.00;61.60;;;;;;5034373;28;20183;-72
2022/05/09 00:50:07;;;;;;;5.22;4.80;;;20.00;61.60;;;;;;5033024;28;20175;-72
2022/05/09 00:53:13;;;;;;;5.43;4.93;;;20.00;61.60;;;;;;5016741;28;20183;-72
2022/05/09 00:55:46;;;;;;;5.60;4.63;;;20.00;61.50;;;;;;4996827;28;20250;-72
2022/05/09 00:58:27;;;;;;;5.15;4.70;;;20.00;61.60;;;;;;4984952;28;20295;-72
2022/05/09 01:00:57;;;;;;;5.15;4.65;;;20.00;61.60;;;;;;5010138;28;20599;-72
2022/05/09 01:03:37;;;;;;;5.63;5.13;;;20.00;61.50;;;;;;4995062;28;20264;-72
2022/05/09 01:06:03;;;;;;;5.63;4.85;;;20.00;61.50;;;;;;5009214;28;20253;-72
2022/05/09 01:08:32;;;;;;;5.07;4.55;;;20.00;61.50;;;;;;4994253;28;20219;-72
2022/05/09 01:11:00;;;;;;;5.22;4.72;;;20.00;61.50;;;;;;5020999;28;20197;-72
2022/05/09 01:13:32;;;;;;;5.68;4.90;;;20.00;61.50;;;;;;5029474;28;20183;-72
2022/05/09 01:16:01;;;;;;;5.20;4.68;;;20.00;61.50;;;;;;5032685;28;20211;-72
2022/05/09 01:18:28;;;;;;;5.10;4.65;;;20.00;61.50;;;;;;5016779;28;20236;-72
2022/05/09 01:20:54;;;;;;;5.65;4.70;;;19.90;61.40;;;;;;5016586;28;20176;-72
2022/05/09 01:23:20;;;;;;;4.50;4.03;;;19.90;61.40;;;;;;5033261;28;20175;-72
2022/05/09 01:25:46;;;;;;;5.20;4.70;;;20.00;61.50;;;;;;5032332;28;20196;-72
2022/05/09 01:28:12;;;;;;;4.75;4.35;;;19.90;61.40;;;;;;5015963;28;20243;-72
2022/05/09 01:30:52;;;;;;;4.63;4.22;;;20.00;61.40;;;;;;5032015;28;20184;-73
2022/05/09 01:33:32;;;;;;;4.72;4.32;;;20.00;61.40;;;;;;5021105;28;20214;-72
2022/05/09 01:36:21;;;;;;;5.18;4.75;;;20.00;61.50;;;;;;5012339;28;20207;-72
2022/05/09 01:38:59;;;;;;;4.50;4.18;;;20.00;61.40;;;;;;5028750;28;20160;-72
2022/05/09 01:41:27;;;;;;;5.78;4.68;;;20.00;61.40;;;;;;5020818;28;20202;-72
2022/05/09 01:43:57;;;;;;;5.07;4.57;;;19.90;62.00;;;;;;5030824;28;20180;-72
2022/05/09 01:46:30;;;;;;;5.00;4.50;;;19.90;61.30;;;;;;5015319;28;20219;-72
2022/05/09 01:51:43;;;;;;;4.60;4.20;;;19.90;61.40;;;;;;5032041;28;20230;-72
2022/05/09 01:54:11;;;;;;;4.90;4.50;;;19.90;61.30;;;;;;5031646;28;20190;-72
2022/05/09 01:56:40;;;;;;;5.03;4.63;;;19.90;61.30;;;;;;5014834;28;20250;-72
2022/05/09 01:59:09;;;;;;;5.30;4.80;;;19.90;61.30;;;;;;5033521;28;20187;-72
2022/05/09 02:02:08;;;;;;;4.85;4.45;;;19.90;61.30;;;;;;5032734;28;20214;-72
2022/05/09 02:04:38;;;;;;;5.30;4.90;;;19.90;61.20;;;;;;5012946;28;20208;-72
2022/05/09 02:07:05;;;;;;;5.55;5.05;;;19.90;61.20;;;;;;5017416;28;20211;-72
2022/05/09 02:09:31;;;;;;;5.13;4.57;;;19.90;61.20;;;;;;5024129;28;20207;-72
2022/05/09 02:11:57;;;;;;;4.85;4.38;;;19.90;61.20;;;;;;5022033;28;20267;-72
2022/05/09 02:14:22;;;;;;;4.65;4.25;;;19.90;61.20;;;;;;5011810;28;20218;-72
2022/05/09 02:16:48;;;;;;;4.63;4.22;;;19.90;61.30;;;;;;4996386;28;20225;-72
2022/05/09 02:19:14;;;;;;;5.00;4.25;;;19.90;61.20;;;;;;4998732;28;20726;-72
2022/05/09 02:21:40;;;;;;;4.78;4.38;;;19.90;61.20;;;;;;4993978;28;20210;-72
2022/05/09 02:24:06;;;;;;;4.38;3.97;;;19.90;61.20;;;;;;4993674;28;20181;-72
2022/05/09 02:26:32;;;;;;;4.38;4.07;;;19.90;61.20;;;;;;4975729;28;20253;-74
2022/05/09 02:28:58;;;;;;;5.05;4.38;;;19.90;61.20;;;;;;4992524;28;20230;-72
2022/05/09 02:31:24;;;;;;;5.32;4.40;;;19.90;61.30;;;;;;4992406;28;20192;-72
2022/05/09 02:33:50;;;;;;;4.80;4.38;;;19.90;61.20;;;;;;4993470;28;20682;-72
2022/05/09 02:36:16;;;;;;;4.43;4.03;;;19.90;61.20;;;;;;4991200;28;22119;-72
2022/05/09 02:38:42;;;;;;;4.45;4.05;;;19.90;61.20;;;;;;4992409;28;20282;-73
2022/05/09 02:41:07;;;;;;;4.35;3.97;;;19.90;61.20;;;;;;5018163;28;20188;-72
2022/05/09 02:43:36;;;;;;;3.92;3.63;;;19.90;61.20;;;;;;5011720;28;20179;-72
2022/05/09 02:46:05;;;;;;;4.82;4.35;;;19.90;61.20;;;;;;5014858;28;20211;-72
2022/05/09 02:48:36;;;;;;;4.97;4.55;;;19.90;61.20;;;;;;5015613;28;20213;-72
2022/05/09 02:51:08;;;;;;;5.03;4.63;;;19.90;61.10;;;;;;5031830;28;20224;-72
2022/05/09 02:53:35;;;;;;;4.95;4.45;;;19.90;61.10;;;;;;5031800;28;20184;-72
2022/05/09 02:56:02;;;;;;;4.82;4.32;;;19.90;61.10;;;;;;5014402;28;20204;-72
2022/05/09 02:58:28;;;;;;;5.03;4.63;;;19.90;61.10;;;;;;5014710;28;20187;-72
2022/05/09 03:00:54;;;;;;;5.05;4.55;;;19.90;61.20;;;;;;5013752;28;20184;-72
2022/05/09 03:06:04;;;;;;;4.80;4.43;;;19.80;61.10;;;;;;5113730;28;20211;-73
2022/05/09 03:08:30;;;;;;;4.18;3.88;;;19.90;61.10;;;;;;5113992;28;20252;-72
2022/05/09 03:10:56;;;;;;;4.88;4.18;;;19.90;61.10;;;;;;5020643;28;20211;-72
2022/05/09 03:13:22;;;;;;;4.22;3.92;;;19.80;61.10;;;;;;5025160;28;20221;-72
2022/05/09 03:15:49;;;;;;;4.22;3.83;;;19.80;60.90;;;;;;5013940;28;20338;-72
2022/05/09 03:18:21;;;;;;;4.65;4.25;;;19.80;61.00;;;;;;5030322;28;20258;-72
2022/05/09 03:20:47;;;;;;;4.82;4.43;;;19.80;60.90;;;;;;5013598;28;20186;-72
2022/05/09 03:23:13;;;;;;;4.53;4.13;;;19.80;60.90;;;;;;5030256;28;20179;-72
2022/05/09 03:25:41;;;;;;;4.80;4.28;;;19.80;60.90;;;;;;5030305;28;20199;-72
2022/05/09 03:28:12;;;;;;;4.80;4.40;;;19.80;60.90;;;;;;5029551;28;20211;-72
2022/05/09 03:30:48;;;;;;;4.90;4.50;;;19.80;60.90;;;;;;5030961;28;20279;-72
2022/05/09 03:33:14;;;;;;;4.65;4.25;;;19.80;60.80;;;;;;5013735;28;20183;-72
2022/05/09 03:35:41;;;;;;;4.88;4.47;;;19.80;60.80;;;;;;5030807;28;20300;-72
2022/05/09 03:38:08;;;;;;;5.35;4.85;;;19.80;60.80;;;;;;5013591;28;20325;-73
2022/05/09 03:40:34;;;;;;;5.00;4.60;;;19.80;61.60;;;;;;5023207;28;20188;-72
2022/05/09 03:43:01;;;;;;;4.80;4.40;;;19.80;60.80;;;;;;4999522;28;20214;-72
2022/05/09 03:45:28;;;;;;;4.53;4.15;;;19.80;60.80;;;;;;5006696;28;20216;-72
2022/05/09 03:47:54;;;;;;;3.85;3.55;;;19.80;60.80;;;;;;4974398;28;20273;-72
2022/05/09 03:50:21;;;;;;;4.53;4.13;;;19.80;60.70;;;;;;4991011;28;20192;-72
2022/05/09 03:52:47;;;;;;;4.03;3.72;;;19.80;60.80;;;;;;5006895;28;20200;-72
2022/05/09 03:55:13;;;;;;;4.05;3.75;;;19.80;60.80;;;;;;4974283;28;20248;-72
2022/05/09 03:57:54;;;;;;;4.75;4.35;;;19.80;60.80;;;;;;4973826;28;20235;-73
2022/05/09 04:00:27;;;;;;;4.57;4.18;;;19.80;60.80;;;;;;4990297;28;20184;-73
2022/05/09 04:02:53;;;;;;;4.25;3.90;;;19.80;60.80;;;;;;4991517;28;20199;-73
2022/05/09 04:05:20;;;;;;;4.93;4.53;;;19.80;60.80;;;;;;4990636;28;20805;-73
2022/05/09 04:07:52;;;;;;;5.00;4.03;;;19.80;60.80;;;;;;4989942;28;20181;-73
2022/05/09 04:10:25;;;;;;;4.63;4.22;;;19.80;60.80;;;;;;5015718;28;20199;-73
2022/05/09 04:12:52;;;;;;;4.82;4.43;;;19.80;60.80;;;;;;5019488;28;20217;-73
2022/05/09 04:18:05;;;;;;;4.90;4.50;;;19.80;60.80;;;;;;5008874;28;20223;-73
2022/05/09 04:20:31;;;;;;;4.53;4.13;;;19.80;60.80;;;;;;5009209;28;20228;-73
2022/05/09 04:22:59;;;;;;;4.38;3.97;;;19.80;60.80;;;;;;5009251;28;20234;-73
2022/05/09 04:25:26;;;;;;;4.30;3.90;;;19.80;60.80;;;;;;5009114;28;20353;-72
2022/05/09 04:27:54;;;;;;;3.88;3.58;;;19.80;61.00;;;;;;4992677;28;20199;-72
2022/05/09 04:30:20;;;;;;;4.20;3.90;;;19.80;60.90;;;;;;5008874;28;20188;-72
2022/05/09 04:32:46;;;;;;;3.95;3.65;;;19.80;60.90;;;;;;4983481;28;20193;-73
2022/05/09 04:35:20;;;;;;;4.50;4.20;;;19.80;60.80;;;;;;4988924;28;20216;-72
2022/05/09 04:37:53;;;;;;;4.05;3.75;;;19.80;60.90;;;;;;4989203;28;20632;-73
2022/05/09 04:40:29;;;;;;;3.70;3.40;;;19.80;60.80;;;;;;5008807;28;20198;-73
2022/05/09 04:42:56;;;;;;;4.80;4.40;;;19.80;60.80;;;;;;5007575;28;20183;-72
2022/05/09 04:47:51;;;;;;;4.72;4.32;;;19.80;60.80;;;;;;5052952;28;20244;-72
2022/05/09 04:50:20;;;;;;;4.72;4.32;;;19.80;60.80;;;;;;5055564;28;20218;-73
2022/05/09 04:52:47;;;;;;;4.82;4.43;;;19.80;60.80;;;;;;5037253;28;20186;-70
2022/05/09 04:55:15;;;;;;;5.22;4.70;;;19.80;60.80;;;;;;5037297;28;20179;-72
2022/05/09 04:57:42;;;;;;;4.35;4.05;;;19.80;60.80;;;;;;5053513;28;20317;-70
2022/05/09 05:00:16;;;;;;;4.90;4.50;;;19.80;60.80;;;;;;5055129;28;20186;-71
2022/05/09 05:02:42;;;;;;;4.38;4.07;;;19.80;60.80;;;;;;5037360;28;20166;-71
2022/05/09 05:05:09;;;;;;;4.22;3.92;;;19.80;60.80;;;;;;5037497;28;20223;-71
2022/05/09 05:07:36;;;;;;;3.95;3.65;;;19.80;60.80;;;;;;5020181;28;20217;-71
2022/05/09 05:10:03;;;;;;;4.07;3.78;;;19.80;60.80;;;;;;5017864;28;20194;-71
2022/05/09 05:12:29;;;;;;;4.45;4.07;;;19.80;60.80;;;;;;5008909;28;20187;-71
2022/05/09 05:14:55;;;;;;;4.00;3.60;;;19.80;60.80;;;;;;5034272;28;20183;-71
2022/05/09 05:17:21;;;;;;;4.60;4.20;;;19.80;60.80;;;;;;5016374;28;20226;-71
2022/05/09 05:19:48;;;;;;;4.07;3.67;;;19.80;60.80;;;;;;5034261;28;20175;-71
2022/05/09 05:22:15;;;;;;;3.70;3.40;;;19.80;60.70;;;;;;5016562;28;20202;-72
2022/05/09 05:24:44;;;;;;;3.90;3.60;;;19.80;60.70;;;;;;5016548;28;20593;-71
2022/05/09 05:27:13;;;;;;;4.10;3.80;;;19.90;60.80;;;;;;4999813;28;20203;-71
2022/05/09 05:29:39;;;;;;;4.07;3.72;;;19.90;60.70;;;;;;5000333;28;20183;-73
2022/05/09 05:32:16;;;;;;;4.95;3.83;;;19.90;60.70;;;;;;5015504;28;20186;-71
2022/05/09 05:34:42;;;;;;;4.65;4.15;;;19.80;60.60;;;;;;5019582;28;20676;-71
2022/05/09 05:37:07;;;;;;;4.65;4.25;;;19.80;60.60;;;;;;5035839;28;20222;-71
2022/05/09 05:39:36;;;;;;;4.70;4.30;;;19.90;60.70;;;;;;5052772;28;20190;-72
2022/05/09 05:42:05;;;;;;;4.65;4.18;;;19.80;60.60;;;;;;5041704;28;20636;-71
2022/05/09 05:44:31;;;;;;;4.40;4.10;;;19.90;60.70;;;;;;5016132;28;20183;-71
2022/05/09 05:46:56;;;;;;;4.55;4.15;;;19.90;60.70;;;;;;5015565;28;20718;-71
2022/05/09 05:49:26;;;;;;;3.97;3.67;;;19.90;60.70;;;;;;5000465;28;20229;-71
2022/05/09 05:51:52;;;;;;;3.95;3.55;;;19.80;60.60;;;;;;4999243;28;20195;-72
2022/05/09 05:54:17;;;;;;;4.30;3.90;;;19.90;60.70;;;;;;4999394;28;20199;-71
2022/05/09 05:56:43;;;;;;;3.75;3.35;;;19.90;60.80;;;;;;5015418;28;20215;-71
2022/05/09 05:59:09;;;;;;;4.30;3.90;;;19.90;60.70;;;;;;4999425;28;20217;-72
2022/05/09 06:01:35;;;;;;;4.38;4.07;;;19.90;60.70;;;;;;4999433;28;20191;-71
2022/05/09 06:04:00;;;;;;;3.88;3.58;;;19.90;60.70;;;;;;4999413;28;20211;-71
2022/05/09 06:06:26;;;;;;;3.63;3.33;;;19.90;60.70;;;;;;5015388;28;20260;-73
2022/05/09 06:08:52;;;;;;;4.32;3.90;;;19.90;60.70;;;;;;4999222;28;20188;-71
2022/05/09 06:11:18;;;;;;;4.40;4.00;;;20.00;60.90;;;;;;5020366;28;20196;-71
2022/05/09 06:13:43;;;;;;;3.92;3.60;;;19.90;60.70;;;;;;5032692;28;20182;-71
2022/05/09 06:16:10;;;;;;;4.75;4.18;;;19.90;60.70;;;;;;5018347;28;20604;-71
2022/05/09 06:18:36;;;;;;;3.95;3.60;;;19.90;60.70;;;;;;5053095;28;20210;-71
2022/05/09 06:21:03;;;;;;;4.05;3.75;;;20.00;60.90;;;;;;5018655;28;20174;-71
2022/05/09 06:23:29;;;;;;;3.72;3.47;;;19.90;60.70;;;;;;5035276;28;20192;-71
2022/05/09 06:25:56;;;;;;;4.60;4.20;;;19.90;60.70;;;;;;5052839;28;20198;-71
2022/05/09 06:28:23;;;;;;;5.00;4.60;;;20.00;60.90;;;;;;5018490;28;20186;-72
2022/05/09 06:30:50;;;;;;;4.45;4.05;;;19.90;60.70;;;;;;5035107;28;20273;-71
2022/05/09 06:33:25;;;;;;;4.45;4.05;;;19.90;60.70;;;;;;5034901;28;20270;-71
2022/05/09 06:35:52;;;;;;;4.40;4.00;;;19.90;60.70;;;;;;5034435;28;20210;-71
2022/05/09 06:38:19;;;;;;;4.70;4.25;;;20.00;60.90;;;;;;5018395;28;20224;-71
2022/05/09 06:40:45;;;;;;;4.97;4.13;;;20.00;60.90;;;;;;5019367;28;20229;-72
2022/05/09 06:43:12;;;;;;;4.82;4.43;;;20.00;60.90;;;;;;5011681;28;20179;-71
2022/05/09 06:45:40;;;;;;;4.40;4.00;;;20.00;60.90;;;;;;5018183;28;20198;-71
2022/05/09 06:48:08;;;;;;;4.20;3.80;;;20.00;60.90;;;;;;5034654;28;20284;-72
2022/05/09 06:50:36;;;;;;;4.30;4.00;;;20.10;61.00;;;;;;5017973;28;20244;-71
2022/05/09 06:53:06;;;;;;;5.07;4.25;;;20.00;60.90;;;;;;5034720;28;20236;-71
2022/05/09 06:55:32;;;;;;;4.47;4.18;;;20.00;60.90;;;;;;5052757;28;20186;-71
2022/05/09 06:57:58;;;;;;;5.13;4.05;;;20.10;61.00;;;;;;5050896;28;20707;-71
2022/05/09 07:00:25;;;;;;;4.35;4.00;;;20.10;61.00;;;;;;5052284;28;20178;-71
2022/05/09 07:02:52;;;;;;;4.93;4.28;;;20.00;60.90;;;;;;5017590;28;20190;-71
2022/05/09 07:05:20;;;;;;;4.80;4.30;;;20.10;61.00;;;;;;5018192;28;20208;-71
2022/05/09 07:07:48;;;;;;;5.00;4.35;;;20.10;61.00;;;;;;5034339;28;20202;-72
2022/05/09 07:10:16;;;;;;;4.05;3.65;;;20.10;61.00;;;;;;5021662;28;20546;-71
2022/05/09 07:12:50;;;;;;;4.30;3.92;;;20.10;61.00;;;;;;5034119;28;20201;-71
2022/05/09 07:15:22;;;;;;;4.38;4.07;;;20.10;61.10;;;;;;5017352;28;20193;-72
2022/05/09 07:17:50;;;;;;;4.40;4.00;;;20.10;61.00;;;;;;5017613;28;20597;-72
2022/05/09 07:20:21;;;;;;;5.05;4.63;;;20.10;61.10;;;;;;5017949;28;20281;-71
2022/05/09 07:22:56;;;;;;;4.72;4.32;;;20.10;61.00;;;;;;5034281;28;20232;-71
2022/05/09 07:25:24;;;;;;;4.40;4.00;;;20.10;61.00;;;;;;5033993;28;20273;-71
2022/05/09 07:27:51;;;;;;;4.55;4.20;;;20.10;61.00;;;;;;5034143;28;20170;-71
2022/05/09 07:30:21;;;;;;;4.95;4.55;;;20.10;61.00;;;;;;5017490;28;20293;-71
2022/05/09 07:32:47;;;;;;;4.10;3.72;;;20.10;61.10;;;;;;5033998;28;20194;-72
2022/05/09 07:35:16;;;;;;;4.50;4.20;;;20.10;61.00;;;;;;5017384;28;20243;-71
2022/05/09 07:37:41;;;;;;;4.70;4.30;;;20.20;61.10;;;;;;5016752;28;20211;-71
2022/05/09 07:40:11;;;;;;;4.75;4.22;;;20.20;61.10;;;;;;5029338;28;20198;-71
2022/05/09 07:42:40;;;;;;;4.13;3.80;;;20.20;61.10;;;;;;5047058;28;20248;-71
2022/05/09 07:45:09;;;;;;;3.95;3.65;;;20.20;61.10;;;;;;5033884;28;20232;-71
2022/05/09 07:47:35;;;;;;;6.05;3.65;;;20.20;61.10;;;;;;5033252;28;20210;-71
2022/05/09 07:50:01;;;;;;;4.15;3.85;;;20.30;61.20;;;;;;5033820;28;20250;-71
2022/05/09 07:52:27;;;;;;;5.60;4.07;;;20.30;61.20;;;;;;5051590;28;20178;-71
2022/05/09 07:54:52;;;;;;;4.03;3.72;;;20.30;61.20;;;;;;5017307;28;20260;-71
2022/05/09 07:57:18;;;;;;;4.28;3.97;;;20.30;61.20;;;;;;5033504;28;20222;-71
2022/05/09 07:59:44;;;;;;;5.43;3.90;;;20.30;61.20;;;;;;5017401;28;20277;-71
2022/05/09 08:02:10;;;;;;;4.43;4.13;;;20.30;61.20;;;;;;5033640;28;20188;-71
2022/05/09 08:04:36;;;;;;;4.32;3.88;;;20.30;62.00;;;;;;5033533;28;20182;-71
2022/05/09 08:07:02;;;;;;;4.65;3.95;;;20.30;61.20;;;;;;5017091;28;20213;-71
2022/05/09 08:09:29;;;;;;;4.88;4.47;;;20.30;61.20;;;;;;5017102;28;20294;-71
2022/05/09 08:11:57;;;;;;;4.07;3.78;;;20.30;61.20;;;;;;5022447;28;20190;-71
2022/05/09 08:14:24;;;;;;;3.90;3.60;;;20.40;61.30;;;;;;5016109;28;20187;-71
2022/05/09 08:16:50;;;;;;;4.00;3.70;;;20.30;61.20;;;;;;5000987;28;20689;-71
2022/05/09 08:19:16;;;;;;;4.35;4.05;;;20.30;61.20;;;;;;5017673;28;20241;-71
2022/05/09 08:21:42;;;;;;;3.85;3.55;;;20.30;61.20;;;;;;5017521;28;20222;-72
2022/05/09 08:24:08;;;;;;;4.43;4.03;;;20.30;61.20;;;;;;5017609;28;20270;-71
2022/05/09 08:26:35;;;;;;;4.55;4.15;;;20.30;61.20;;;;;;5000993;28;20294;-71
2022/05/09 08:29:01;;;;;;;4.88;3.92;;;20.30;61.20;;;;;;5001532;28;20274;-71
2022/05/09 08:31:27;;;;;;;4.10;3.80;;;20.30;61.20;;;;;;5017574;28;20214;-72
2022/05/09 08:33:56;;;;;;;3.85;3.55;;;20.30;61.10;;;;;;5001318;28;20191;-71
2022/05/09 08:39:08;;;;;;;4.03;3.72;;;20.40;61.30;;;;;;5017591;28;20210;-71
2022/05/09 08:42:04;;;;;;;4.35;4.03;;;20.40;61.30;;;;;;5023968;28;20195;-71
2022/05/09 08:44:51;;;;;;;4.32;3.85;;;20.40;61.30;;;;;;5011195;28;20265;-71
2022/05/09 08:47:57;;;;;;;4.05;3.70;;;20.40;61.30;;;;;;5016791;28;20219;-71
2022/05/09 08:51:05;;;;;;;4.47;4.07;;;20.40;61.20;;;;;;5017369;28;20191;-71
2022/05/09 08:53:36;;;;;;;4.45;4.05;;;20.40;62.10;;;;;;5006853;28;20202;-71
2022/05/09 08:56:02;;;;;;;4.43;4.03;;;20.40;61.30;;;;;;5000341;28;20303;-71
2022/05/09 08:58:46;;;;;;;4.20;3.90;;;20.40;61.30;;;;;;5023396;28;20263;-71
2022/05/09 09:01:29;;;;;;;4.38;4.03;;;20.40;61.20;;;;;;5020305;28;20182;-71
2022/05/09 09:04:12;;;;;;;3.70;3.40;;;20.40;61.30;;;;;;5051374;28;20189;-72
2022/05/09 09:07:02;;;;;;;6.82;3.80;;;20.40;61.30;;;;;;5019972;28;20194;-71
2022/05/09 09:10:02;;;;;;;3.92;3.63;;;20.40;61.30;;;;;;5019461;28;20185;-71
2022/05/09 09:12:48;;;;;;;4.40;4.00;;;20.40;61.30;;;;;;5023944;28;20236;-71
2022/05/09 09:15:52;;;;;;;3.78;3.47;;;20.40;61.20;;;;;;5020690;28;20269;-70
2022/05/09 09:19:04;;;;;;;4.07;3.78;;;20.40;61.30;;;;;;5020361;28;20260;-71
2022/05/09 09:21:57;;;;;;;4.20;3.80;;;20.40;62.10;;;;;;5054533;28;20190;-70
2022/05/09 09:24:44;;;;;;;4.70;4.30;;;20.40;61.30;;;;;;5020521;28;20194;-71
2022/05/09 09:27:46;;;;;;;3.92;3.58;;;20.40;61.30;;;;;;5019586;28;20225;-71
2022/05/09 09:30:18;;;;;;;3.72;3.42;;;20.40;61.30;;;;;;5020127;28;20190;-70
2022/05/09 09:32:55;;;;;;;3.80;3.50;;;20.40;61.30;;;;;;5020515;28;20204;-71
2022/05/09 09:35:53;;;;;;;4.20;3.80;;;20.40;61.40;;;;;;5019315;28;20269;-71
2022/05/09 09:38:31;;;;;;;3.97;3.67;;;20.40;61.50;;;;;;5033190;28;20195;-71
2022/05/09 09:41:30;;;;;;;4.20;3.90;;;20.40;61.40;;;;;;5025804;28;20183;-71
2022/05/09 09:44:29;;;;;;;3.85;3.55;;;20.40;61.30;;;;;;5017271;28;20251;-71
2022/05/09 09:47:19;;;;;;;3.83;3.47;;;20.40;61.30;;;;;;4957854;28;20227;-70
2022/05/09 09:49:48;;;;;;;4.00;3.70;;;20.40;61.30;;;;;;5016831;28;20183;-71
2022/05/09 09:52:40;;;;;;;4.65;3.78;;;20.40;61.30;;;;;;5016952;28;20219;-71
2022/05/09 09:55:19;;;;;;;3.95;3.65;;;20.40;61.30;;;;;;5000064;28;20195;-71
2022/05/09 09:57:46;;;;;;;4.00;3.60;;;20.40;61.30;;;;;;4999865;28;20210;-70
2022/05/09 10:00:24;;;;;;;4.05;3.80;;;20.40;61.40;;;;;;5016373;28;20183;-71
2022/05/09 10:02:53;;;;;;;4.40;4.10;;;20.40;61.50;;;;;;4999938;28;20183;-71
2022/05/09 10:05:32;;;;;;;4.70;4.30;;;20.40;61.70;;;;;;5016392;28;20184;-71
2022/05/09 10:07:58;;;;;;;4.18;3.88;;;20.40;61.70;;;;;;4999632;28;20630;-71
2022/05/09 10:10:27;;;;;;;3.90;3.60;;;20.40;61.80;;;;;;5042942;28;20195;-70
2022/05/09 10:12:58;;;;;;;4.25;3.88;;;20.40;62.00;;;;;;5027604;28;20182;-71
2022/05/09 10:15:36;;;;;;;4.35;4.05;;;20.40;62.20;;;;;;5036055;28;20626;-71
2022/05/09 10:18:23;;;;;;;3.92;3.63;;;20.40;62.00;;;;;;5053546;28;20199;-71
2022/05/09 10:20:51;;;;;;;4.78;4.25;;;20.40;62.10;;;;;;5035840;28;20173;-71
2022/05/09 10:26:26;;;;;;;4.00;3.70;;;20.40;62.00;;;;;;5053236;28;20209;-71
2022/05/09 10:28:58;;;;;;;5.10;4.60;;;20.40;62.20;;;;;;5035716;28;20163;-71
2022/05/09 10:31:47;;;;;;;4.72;4.43;;;20.40;62.30;;;;;;5019147;28;20668;-71
2022/05/09 10:34:47;;;;;;;4.10;3.80;;;20.40;62.00;;;;;;5053285;28;20555;-71
2022/05/09 10:37:43;;;;;;;4.30;3.90;;;20.40;62.00;;;;;;5017584;28;20218;-71
2022/05/09 10:40:26;;;;;;;4.45;4.15;;;20.40;62.00;;;;;;5030868;28;20184;-71
2022/05/09 10:43:08;;;;;;;4.75;4.38;;;20.40;62.20;;;;;;5041551;28;20179;-71
2022/05/09 10:48:34;;;;;;;4.53;4.13;;;20.40;62.10;;;;;;5023148;28;20678;-73
2022/05/09 10:51:12;;;;;;;4.00;3.70;;;20.40;62.90;;;;;;5015110;28;20212;-73
2022/05/09 10:54:10;;;;;;;4.40;4.00;;;20.40;62.20;;;;;;5012674;28;20188;-73
2022/05/09 10:57:10;;;;;;;4.63;4.22;;;20.40;62.10;;;;;;5020220;28;20353;-74
2022/05/09 10:59:42;;;;;;;4.43;4.03;;;20.40;62.50;;;;;;5031506;28;20195;-74
2022/05/09 11:02:33;;;;;;;4.85;3.92;;;20.40;62.30;;;;;;5049005;28;20242;-74
2022/05/09 11:04:59;;;;;;;4.78;4.38;;;20.40;62.30;;;;;;5015351;28;20186;-72
2022/05/09 11:08:17;;;;;;;4.32;3.58;;;20.40;62.20;;;;;;5031294;28;20234;-73
2022/05/09 11:10:57;;;;;;;4.45;4.10;;;20.40;62.30;;;;;;4936424;29;20190;-73
2022/05/09 11:13:54;;;;;;;4.60;4.30;;;20.40;62.40;;;;;;5031459;28;20269;-73
2022/05/09 11:16:40;;;;;;;4.13;3.83;;;20.40;62.40;;;;;;5031036;28;20257;-73
2022/05/09 11:19:53;;;;;;;4.32;3.92;;;20.50;62.60;;;;;;5032616;28;20650;-73
2022/05/09 11:23:03;;;;;;;4.18;3.80;;;20.50;62.60;;;;;;5024840;28;20540;-73
2022/05/09 11:26:01;;;;;;;3.90;3.60;;;20.50;62.80;;;;;;4992747;28;20195;-73
2022/05/09 11:29:43;;;;;;;4.85;4.45;;;20.50;62.50;;;;;;5015205;28;20195;-73
2022/05/09 11:32:26;;;;;;;4.80;4.40;;;20.50;62.40;;;;;;4932528;29;20191;-73
2022/05/09 11:35:32;;;;;;;4.38;3.97;;;20.50;62.60;;;;;;5011979;28;20319;-73
2022/05/09 11:38:10;;;;;;;4.93;4.53;;;20.50;62.60;;;;;;5012735;28;20223;-73
2022/05/09 11:41:17;;;;;;;4.82;4.20;;;20.50;62.50;;;;;;5016503;28;20233;-73
2022/05/09 11:44:02;;;;;;;4.45;3.78;;;20.50;62.50;;;;;;5014703;28;20643;-73
2022/05/09 11:47:02;;;;;;;4.75;4.38;;;20.50;62.40;;;;;;5030888;28;20224;-72
2022/05/09 11:50:08;;;;;;;4.60;4.20;;;20.50;62.40;;;;;;5032000;28;20182;-73
2022/05/09 11:52:42;;;;;;;4.45;4.05;;;20.50;62.60;;;;;;5032516;28;20163;-73
2022/05/09 11:55:19;;;;;;;4.45;4.05;;;20.50;62.60;;;;;;5047993;28;20187;-73
2022/05/09 11:57:56;;;;;;;5.05;4.50;;;20.50;62.70;;;;;;5014389;28;20249;-73
2022/05/09 12:00:35;;;;;;;4.63;4.32;;;20.50;62.50;;;;;;5014580;28;20210;-73
2022/05/09 12:03:10;;;;;;;4.65;3.92;;;20.50;62.40;;;;;;5031086;28;20255;-73
2022/05/09 12:05:37;;;;;;;6.30;4.28;;;20.50;62.60;;;;;;5014407;28;20171;-73
2022/05/09 12:08:08;;;;;;;4.05;3.65;;;20.50;62.40;;;;;;5030682;28;20180;-73
2022/05/09 12:10:41;;;;;;;3.75;3.50;;;20.50;62.50;;;;;;5030994;28;20199;-73
2022/05/09 12:13:14;;;;;;;4.63;3.90;;;20.50;62.40;;;;;;5019317;28;20211;-73
2022/05/09 12:15:57;;;;;;;4.10;3.80;;;20.50;63.20;;;;;;5011049;28;20176;-73
2022/05/09 12:18:45;;;;;;;4.80;4.40;;;20.50;62.40;;;;;;5010827;28;20212;-73
2022/05/09 12:21:14;;;;;;;5.18;4.53;;;20.50;62.40;;;;;;4995070;28;20177;-72
2022/05/09 12:23:44;;;;;;;4.40;4.10;;;20.50;62.60;;;;;;4994614;28;20172;-73
2022/05/09 12:26:32;;;;;;;4.63;3.78;;;20.50;62.40;;;;;;4994590;28;20215;-73
2022/05/09 12:29:16;;;;;;;4.30;4.00;;;20.50;62.40;;;;;;5011083;28;20184;-73
2022/05/09 12:31:55;;;;;;;4.50;4.15;;;20.50;62.20;;;;;;4994653;28;20195;-73
2022/05/09 12:34:36;;;;;;;4.57;4.22;;;20.50;62.10;;;;;;5011131;28;20207;-73
2022/05/09 12:37:04;;;;;;;4.70;4.30;;;20.50;61.90;;;;;;5010655;28;20215;-72
2022/05/09 12:39:33;;;;;;;4.78;4.38;;;20.50;61.80;;;;;;5010895;28;20180;-72
2022/05/09 12:42:03;;;;;;;4.50;4.18;;;20.50;61.90;;;;;;5023324;28;20186;-72
2022/05/09 12:44:48;;;;;;;4.60;4.25;;;20.50;62.60;;;;;;5031758;28;20172;-72
2022/05/09 12:47:31;;;;;;;4.85;4.55;;;20.50;61.90;;;;;;5030246;28;20286;-72
2022/05/09 12:50:17;;;;;;;4.88;4.57;;;20.50;62.10;;;;;;5014203;28;20183;-73
2022/05/09 12:52:52;;;;;;;4.57;4.28;;;20.50;62.10;;;;;;5014083;28;20179;-72
2022/05/09 12:58:43;;;;;;;4.50;4.18;;;20.50;62.00;;;;;;5030521;28;20211;-72
2022/05/09 13:01:15;;;;;;;4.85;4.18;;;20.50;62.10;;;;;;5032137;28;20186;-72
2022/05/09 13:03:56;;;;;;;4.63;4.22;;;20.50;61.90;;;;;;5033963;28;20190;-72
2022/05/09 13:06:31;;;;;;;4.72;4.38;;;20.50;61.90;;;;;;5034009;28;20215;-72
2022/05/09 13:08:57;;;;;;;4.88;4.47;;;20.50;61.90;;;;;;5035164;28;20167;-72
2022/05/09 13:11:29;;;;;;;4.45;4.13;;;20.50;62.00;;;;;;5027159;28;20190;-73
2022/05/09 13:14:04;;;;;;;4.90;4.50;;;20.50;62.00;;;;;;5008550;28;20182;-73
2022/05/09 13:16:37;;;;;;;5.35;4.95;;;20.50;61.90;;;;;;5017696;28;20203;-73
2022/05/09 13:19:15;;;;;;;4.70;4.30;;;20.50;61.90;;;;;;4998143;28;20190;-73
2022/05/09 13:21:42;;;;;;;4.70;4.30;;;20.50;61.80;;;;;;5030611;28;20214;-73
2022/05/09 13:24:20;;;;;;;4.50;4.15;;;20.50;61.70;;;;;;5013803;28;20287;-73
2022/05/09 13:26:52;;;;;;;4.57;4.28;;;20.50;61.60;;;;;;5013788;28;20246;-73
2022/05/09 13:29:32;;;;;;;4.50;4.10;;;20.50;61.60;;;;;;5013917;28;20203;-73
2022/05/09 13:31:59;;;;;;;4.80;4.40;;;20.50;61.40;;;;;;4997390;28;20188;-73
2022/05/09 13:34:45;;;;;;;5.00;4.60;;;20.50;61.50;;;;;;4997424;28;20765;-73
2022/05/09 13:37:24;;;;;;;5.00;4.57;;;20.50;61.40;;;;;;5014510;28;20219;-73
2022/05/09 13:39:50;;;;;;;4.82;4.43;;;20.50;61.40;;;;;;5014728;28;20180;-73
2022/05/09 13:42:32;;;;;;;4.40;4.10;;;20.50;61.40;;;;;;5021824;28;20180;-73